Time;durP1;ratioP1;P1;durP2;ratioP2;P2;SDS_P1;SDS_P2;PMS_P1;PMS_P2;Temp;Humidity;BMP_temperature;BMP_pressure;BME280_temperature;BME280_humidity;BME280_pressure;Samples;Min_cycle;Max_cycle;Signal;HPM_P1;HPM_P2
2024/01/19 00:00:04;;;;;;;1.10;0.70;;;;;;;18.86;35.61;101032.97;5012189;28;20060;-69
2024/01/19 00:02:30;;;;;;;2.85;1.10;;;;;;;18.76;35.37;101017.31;5027788;28;20646;-69
2024/01/19 00:04:55;;;;;;;1.00;0.93;;;;;;;18.81;35.57;101033.47;5029006;28;20056;-69
2024/01/19 00:07:21;;;;;;;1.42;0.93;;;;;;;18.78;35.66;101033.81;5027698;28;20080;-69
2024/01/19 00:09:46;;;;;;;1.23;1.10;;;;;;;18.67;35.80;101028.88;5030618;28;20056;-69
2024/01/19 00:12:12;;;;;;;1.52;1.05;;;;;;;18.73;35.84;101049.31;5027366;28;20040;-69
2024/01/19 00:14:38;;;;;;;1.00;1.00;;;;;;;18.67;35.79;101040.28;5032206;28;20038;-69
2024/01/19 00:17:04;;;;;;;1.20;0.95;;;;;;;18.69;35.91;101050.66;5011526;28;20042;-69
2024/01/19 00:19:29;;;;;;;1.48;1.05;;;;;;;18.64;35.92;101050.31;5024199;28;20485;-69
2024/01/19 00:21:55;;;;;;;1.92;0.70;;;;;;;18.67;35.99;101074.56;5032885;28;20038;-69
2024/01/19 00:24:20;;;;;;;0.70;0.70;;;;;;;18.65;35.92;101065.97;5028167;28;20049;-69
2024/01/19 00:26:49;;;;;;;2.15;1.05;;;;;;;18.58;35.98;101069.41;5032825;28;20045;-69
2024/01/19 00:29:14;;;;;;;1.00;0.90;;;;;;;18.54;35.93;101074.19;5028098;28;20036;-68
2024/01/19 00:31:45;;;;;;;1.90;0.90;;;;;;;18.55;35.94;101088.19;5027450;28;20041;-69
2024/01/19 00:34:12;;;;;;;1.23;0.68;;;;;;;18.54;36.07;101089.19;5022784;28;20509;-69
2024/01/19 00:36:38;;;;;;;1.25;1.00;;;;;;;18.10;36.15;101023.56;5024633;28;20036;-69
2024/01/19 00:39:04;;;;;;;1.27;0.80;;;;;;;18.47;35.94;101112.75;5029885;28;20045;-69
2024/01/19 00:41:30;;;;;;;1.70;0.70;;;;;;;18.43;36.19;101104.34;5025600;28;20116;-69
2024/01/19 00:43:57;;;;;;;1.83;1.00;;;;;;;18.38;36.07;101101.38;5025322;28;20458;-69
2024/01/19 00:46:23;;;;;;;1.98;0.95;;;;;;;18.37;36.32;101112.91;5030761;28;20178;-69
2024/01/19 00:48:49;;;;;;;1.77;0.80;;;;;;;18.20;36.12;101063.78;5027275;28;20057;-69
2024/01/19 00:51:15;;;;;;;1.75;0.88;;;;;;;18.30;36.13;101098.72;5030851;28;20037;-69
2024/01/19 00:53:41;;;;;;;1.17;0.80;;;;;;;18.31;36.31;101126.75;5031212;28;20030;-69
2024/01/19 00:56:08;;;;;;;3.55;0.73;;;;;;;18.30;36.31;101140.91;5028921;28;20036;-68
2024/01/19 00:58:34;;;;;;;1.08;0.70;;;;;;;18.32;36.36;101148.66;5027542;28;20446;-69
2024/01/19 01:01:00;;;;;;;0.50;0.50;;;;;;;18.27;36.22;101161.50;5030155;28;20048;-69
2024/01/19 01:03:28;;;;;;;0.68;0.68;;;;;;;18.25;36.41;101174.84;5027438;28;20049;-69
2024/01/19 01:05:59;;;;;;;0.75;0.65;;;;;;;18.25;36.17;101152.91;5027990;28;20052;-69
2024/01/19 01:08:26;;;;;;;2.15;0.98;;;;;;;18.21;36.37;101144.50;5030893;28;20577;-69
2024/01/19 01:10:52;;;;;;;1.17;0.70;;;;;;;18.11;36.43;101122.72;5030788;28;20775;-69
2024/01/19 01:13:18;;;;;;;1.40;0.73;;;;;;;18.19;36.37;101143.84;5011127;28;20627;-69
2024/01/19 01:15:44;;;;;;;1.77;0.73;;;;;;;18.19;36.69;101133.31;5031807;28;20037;-69
2024/01/19 01:18:10;;;;;;;1.13;0.68;;;;;;;18.19;36.29;101119.31;5028983;28;20068;-69
2024/01/19 01:20:36;;;;;;;1.70;0.60;;;;;;;18.16;36.16;101115.19;5026997;28;20523;-69
2024/01/19 01:23:01;;;;;;;2.63;0.70;;;;;;;17.97;36.53;101089.94;5030573;28;20041;-68
2024/01/19 01:25:27;;;;;;;0.95;0.73;;;;;;;18.10;36.30;101113.19;5019441;28;20653;-69
2024/01/19 01:27:52;;;;;;;1.05;0.70;;;;;;;18.07;36.38;101111.69;5022234;28;20337;-69
2024/01/19 01:30:18;;;;;;;0.82;0.40;;;;;;;18.09;36.60;101116.81;5028036;28;20045;-69
2024/01/19 01:32:43;;;;;;;1.50;0.63;;;;;;;18.05;36.64;101126.03;5025255;28;20068;-69
2024/01/19 01:35:09;;;;;;;2.38;0.95;;;;;;;18.04;36.55;101135.75;5029994;28;20042;-69
2024/01/19 01:37:34;;;;;;;0.95;0.60;;;;;;;18.04;36.66;101132.28;5031167;28;20063;-69
2024/01/19 01:40:00;;;;;;;0.80;0.50;;;;;;;18.02;36.60;101131.63;5026091;28;21021;-69
2024/01/19 01:42:25;;;;;;;0.75;0.45;;;;;;;17.99;36.72;101129.31;5029339;28;20037;-69
2024/01/19 01:44:51;;;;;;;0.60;0.28;;;;;;;17.97;36.55;101131.28;5029430;28;20420;-69
2024/01/19 01:47:16;;;;;;;1.55;0.65;;;;;;;17.96;36.54;101138.34;5025650;28;20041;-69
2024/01/19 01:49:42;;;;;;;1.10;0.70;;;;;;;18.06;36.56;101154.84;5015832;28;20037;-68
2024/01/19 01:52:09;;;;;;;0.50;0.30;;;;;;;18.02;36.19;101121.91;5029989;28;20683;-69
2024/01/19 01:54:35;;;;;;;0.77;0.50;;;;;;;18.07;36.22;101103.78;5026225;28;20113;-69
2024/01/19 01:57:01;;;;;;;1.45;0.45;;;;;;;18.53;35.91;101146.38;5033039;28;20155;-69
2024/01/19 01:59:28;;;;;;;0.98;0.40;;;;;;;18.61;35.74;101145.56;5031135;28;20488;-69
2024/01/19 02:01:54;;;;;;;0.50;0.50;;;;;;;18.64;35.70;101139.97;5026820;28;20057;-69
2024/01/19 02:04:20;;;;;;;1.35;0.40;;;;;;;18.74;35.64;101145.94;5015658;28;20048;-69
2024/01/19 02:06:45;;;;;;;0.98;0.80;;;;;;;18.73;35.61;101141.66;5033192;28;20037;-69
2024/01/19 02:09:11;;;;;;;0.52;0.43;;;;;;;18.75;35.75;101158.13;5029480;28;20037;-69
2024/01/19 02:11:37;;;;;;;0.80;0.50;;;;;;;18.63;35.50;101136.53;5033978;28;20045;-69
2024/01/19 02:14:05;;;;;;;0.75;0.40;;;;;;;18.64;35.47;101143.44;5020939;28;20065;-69
2024/01/19 02:16:32;;;;;;;0.43;0.30;;;;;;;18.66;35.70;101164.38;5026720;28;20071;-69
2024/01/19 02:18:57;;;;;;;0.60;0.43;;;;;;;18.66;35.66;101173.13;5032305;28;20045;-69
2024/01/19 02:21:23;;;;;;;1.45;0.55;;;;;;;18.67;35.71;101168.66;5023352;28;20463;-69
2024/01/19 02:24:03;;;;;;;0.35;0.30;;;;;;;18.63;35.72;101164.72;5022616;28;20129;-69
2024/01/19 02:26:34;;;;;;;0.15;0.15;;;;;;;18.55;35.88;101162.88;5025495;28;20166;-69
2024/01/19 02:29:00;;;;;;;0.88;0.38;;;;;;;18.53;35.88;101178.03;5029069;28;20037;-69
2024/01/19 02:31:26;;;;;;;0.43;0.40;;;;;;;18.50;35.87;101196.81;5029338;28;20056;-69
2024/01/19 02:33:51;;;;;;;0.65;0.30;;;;;;;18.46;36.06;101235.03;5027378;28;20033;-69
2024/01/19 02:36:18;;;;;;;0.43;0.38;;;;;;;18.44;36.01;101229.09;5024746;28;20041;-69
2024/01/19 02:38:43;;;;;;;1.15;0.50;;;;;;;18.40;36.03;101233.03;5026270;28;21340;-69
2024/01/19 02:41:09;;;;;;;1.08;0.25;;;;;;;18.35;35.98;101237.97;5021611;28;20041;-69
2024/01/19 02:43:35;;;;;;;0.47;0.30;;;;;;;18.35;36.03;101249.34;5019844;28;20459;-69
2024/01/19 02:46:00;;;;;;;0.68;0.35;;;;;;;18.24;36.10;101244.34;5033105;28;20503;-69
2024/01/19 02:48:26;;;;;;;0.57;0.40;;;;;;;18.24;36.10;101233.00;5030766;28;20053;-69
2024/01/19 02:50:51;;;;;;;0.88;0.40;;;;;;;18.22;36.44;101237.59;5025323;28;20053;-69
2024/01/19 02:53:17;;;;;;;0.57;0.20;;;;;;;18.22;36.20;101229.69;5030493;28;20056;-69
2024/01/19 02:55:42;;;;;;;0.60;0.32;;;;;;;18.18;36.44;101218.66;5038849;28;20044;-69
2024/01/19 02:58:08;;;;;;;0.75;0.38;;;;;;;18.16;36.32;101220.63;5034323;28;20045;-69
2024/01/19 03:00:33;;;;;;;1.50;0.47;;;;;;;18.09;36.50;101215.13;5035516;28;20044;-68
2024/01/19 03:02:59;;;;;;;1.25;0.35;;;;;;;18.01;36.54;101209.03;5031100;28;20040;-69
2024/01/19 03:05:24;;;;;;;0.20;0.20;;;;;;;18.00;36.62;101226.63;5025626;28;20052;-69
2024/01/19 03:07:50;;;;;;;1.10;0.32;;;;;;;17.90;36.52;101210.13;5011829;28;20084;-69
2024/01/19 03:10:16;;;;;;;0.93;0.45;;;;;;;18.01;36.47;101233.56;5025824;28;20037;-69
2024/01/19 03:12:41;;;;;;;0.32;0.20;;;;;;;17.98;36.51;101244.44;5035299;28;20041;-68
2024/01/19 03:15:07;;;;;;;2.17;0.70;;;;;;;17.81;36.65;101216.34;5030734;28;20043;-69
2024/01/19 03:17:33;;;;;;;1.55;0.73;;;;;;;17.95;36.68;101242.06;5030273;28;20103;-68
2024/01/19 03:19:59;;;;;;;1.02;0.70;;;;;;;17.93;36.59;101238.78;5027549;28;20045;-69
2024/01/19 03:22:25;;;;;;;1.45;0.50;;;;;;;17.89;36.63;101234.81;5010895;28;20959;-68
2024/01/19 03:24:50;;;;;;;1.48;0.47;;;;;;;17.90;36.51;101246.19;5022012;28;20041;-69
2024/01/19 03:27:16;;;;;;;0.77;0.40;;;;;;;17.86;36.68;101247.47;5025506;28;20045;-69
2024/01/19 03:29:42;;;;;;;0.63;0.35;;;;;;;17.86;36.72;101250.94;5025219;28;20057;-69
2024/01/19 03:32:07;;;;;;;0.90;0.45;;;;;;;17.82;36.57;101249.59;5029074;28;20045;-68
2024/01/19 03:34:34;;;;;;;1.55;0.63;;;;;;;17.79;36.67;101240.22;5027681;28;20114;-68
2024/01/19 03:37:03;;;;;;;0.82;0.30;;;;;;;17.74;36.76;101244.28;5030387;28;20037;-70
2024/01/19 03:39:33;;;;;;;0.57;0.30;;;;;;;17.78;36.73;101249.09;5028316;28;20041;-68
2024/01/19 03:41:59;;;;;;;1.73;0.43;;;;;;;17.73;36.76;101243.44;5035459;28;20467;-68
2024/01/19 03:44:25;;;;;;;2.70;0.80;;;;;;;17.80;36.58;101252.41;5029706;28;20311;-69
2024/01/19 03:46:51;;;;;;;1.38;0.60;;;;;;;17.83;36.58;101245.16;5033143;28;20060;-69
2024/01/19 03:49:17;;;;;;;0.80;0.45;;;;;;;17.97;36.34;101253.31;5033911;28;20037;-68
2024/01/19 03:52:12;;;;;;;0.52;0.17;;;;;;;18.06;36.30;101249.72;5026774;28;20365;-69
2024/01/19 03:54:37;;;;;;;1.00;0.60;;;;;;;18.12;36.27;101261.44;5014223;28;20828;-69
2024/01/19 03:57:06;;;;;;;0.60;0.60;;;;;;;18.14;36.28;101267.41;5014159;28;20041;-69
2024/01/19 03:59:32;;;;;;;0.65;0.30;;;;;;;18.16;36.16;101267.25;5035615;28;20102;-69
2024/01/19 04:01:57;;;;;;;2.08;0.50;;;;;;;18.14;36.13;101264.75;5029549;28;20053;-68
2024/01/19 04:04:24;;;;;;;0.75;0.20;;;;;;;18.07;36.16;101264.53;5032513;28;20145;-69
2024/01/19 04:06:49;;;;;;;0.52;0.30;;;;;;;18.09;36.41;101274.94;5034608;28;20045;-69
2024/01/19 04:09:16;;;;;;;1.20;0.80;;;;;;;18.08;36.30;101265.38;5032196;28;20037;-69
2024/01/19 04:11:43;;;;;;;0.55;0.30;;;;;;;18.03;36.50;101273.75;5034138;28;20037;-69
2024/01/19 04:14:09;;;;;;;0.30;0.30;;;;;;;18.04;36.41;101282.50;5031470;28;20041;-68
2024/01/19 04:16:35;;;;;;;0.50;0.50;;;;;;;18.00;36.36;101284.63;5029056;28;20040;-68
2024/01/19 04:19:02;;;;;;;0.38;0.20;;;;;;;17.99;36.48;101282.97;5027731;28;20028;-68
2024/01/19 04:21:28;;;;;;;1.88;0.30;;;;;;;17.93;36.65;101286.19;5029791;28;20041;-69
2024/01/19 04:23:54;;;;;;;1.20;0.73;;;;;;;17.92;36.61;101292.47;5033673;28;20134;-68
2024/01/19 04:26:19;;;;;;;1.02;0.38;;;;;;;17.77;36.64;101273.78;5032866;28;20045;-68
2024/01/19 04:28:45;;;;;;;0.32;0.30;;;;;;;17.83;36.72;101292.59;5011497;28;20037;-68
2024/01/19 04:31:10;;;;;;;0.63;0.32;;;;;;;17.68;36.89;101274.69;5032821;28;20053;-68
2024/01/19 04:33:36;;;;;;;1.52;0.52;;;;;;;17.80;36.76;101312.16;5027062;28;20041;-67
2024/01/19 04:36:02;;;;;;;1.10;0.30;;;;;;;17.75;36.81;101317.88;5025617;28;20045;-69
2024/01/19 04:38:27;;;;;;;0.75;0.20;;;;;;;17.74;36.79;101320.66;5029061;28;20049;-69
2024/01/19 04:40:54;;;;;;;0.77;0.40;;;;;;;17.63;36.91;101307.72;5027186;28;20049;-69
2024/01/19 04:43:19;;;;;;;0.10;0.10;;;;;;;17.71;36.93;101329.69;5035735;28;20449;-68
2024/01/19 04:45:45;;;;;;;1.73;0.60;;;;;;;17.72;37.00;101330.53;5035698;28;20046;-69
2024/01/19 04:48:11;;;;;;;0.47;0.30;;;;;;;17.81;36.75;101329.63;5028485;28;20037;-69
2024/01/19 04:50:38;;;;;;;0.60;0.30;;;;;;;17.95;36.57;101323.75;5029874;28;20049;-68
2024/01/19 04:53:04;;;;;;;1.05;0.38;;;;;;;17.88;36.36;101295.56;5026752;28;20065;-69
2024/01/19 04:55:29;;;;;;;0.60;0.40;;;;;;;17.96;36.34;101306.16;5032297;28;20037;-69
2024/01/19 04:57:55;;;;;;;1.55;0.40;;;;;;;18.15;36.23;101336.75;5031392;28;20206;-69
2024/01/19 05:00:22;;;;;;;0.68;0.40;;;;;;;18.17;36.20;101338.25;5031699;28;20040;-69
2024/01/19 05:02:47;;;;;;;1.73;0.60;;;;;;;18.15;36.13;101340.22;5033043;28;20044;-69
2024/01/19 05:05:13;;;;;;;0.63;0.43;;;;;;;18.14;36.21;101343.00;5032694;28;20033;-68
2024/01/19 05:07:39;;;;;;;0.38;0.38;;;;;;;18.05;36.31;101332.41;5025926;28;20103;-68
2024/01/19 05:10:05;;;;;;;1.02;0.52;;;;;;;18.01;36.28;101332.88;5026797;28;20085;-69
2024/01/19 05:12:31;;;;;;;1.98;0.40;;;;;;;18.06;36.42;101355.13;5029987;28;20106;-68
2024/01/19 05:14:57;;;;;;;0.80;0.43;;;;;;;17.94;36.40;101337.09;5006935;28;20470;-69
2024/01/19 05:17:23;;;;;;;0.50;0.40;;;;;;;17.81;36.56;101333.06;5026513;28;20091;-68
2024/01/19 05:19:48;;;;;;;0.88;0.47;;;;;;;17.99;36.46;101359.38;5027106;28;20770;-68
2024/01/19 05:22:14;;;;;;;0.43;0.28;;;;;;;17.94;36.48;101368.72;5030429;28;20053;-68
2024/01/19 05:24:43;;;;;;;0.98;0.28;;;;;;;17.94;36.73;101369.53;5031633;28;20374;-69
2024/01/19 05:27:09;;;;;;;0.90;0.30;;;;;;;17.85;36.39;101375.75;5019051;28;20513;-68
2024/01/19 05:29:35;;;;;;;1.45;0.60;;;;;;;17.75;36.83;101370.56;5031449;28;20495;-68
2024/01/19 05:32:01;;;;;;;2.63;0.60;;;;;;;17.42;36.72;101318.59;5026090;28;20033;-69
2024/01/19 05:34:27;;;;;;;2.30;0.65;;;;;;;17.67;36.78;101375.72;5023874;28;20041;-69
2024/01/19 05:36:53;;;;;;;0.98;0.32;;;;;;;17.74;36.88;101392.59;5030859;28;20045;-68
2024/01/19 05:39:18;;;;;;;1.25;0.43;;;;;;;17.70;36.85;101400.97;5027038;28;20413;-69
2024/01/19 05:41:44;;;;;;;0.80;0.50;;;;;;;17.68;37.07;101430.09;5025041;28;20053;-69
2024/01/19 05:44:10;;;;;;;1.48;0.35;;;;;;;17.58;37.00;101437.19;5030500;28;20041;-68
2024/01/19 05:46:35;;;;;;;1.58;0.50;;;;;;;17.49;36.92;101411.78;5028740;28;20037;-69
2024/01/19 05:49:01;;;;;;;1.67;0.50;;;;;;;17.75;36.84;101425.03;5028085;28;20037;-69
2024/01/19 05:51:26;;;;;;;1.20;0.60;;;;;;;17.86;36.78;101410.81;5028570;28;20044;-69
2024/01/19 05:53:52;;;;;;;0.75;0.28;;;;;;;17.88;36.82;101424.66;5027620;28;20029;-69
2024/01/19 05:56:17;;;;;;;1.95;0.70;;;;;;;17.90;36.69;101426.16;5031077;28;20053;-68
2024/01/19 05:58:44;;;;;;;0.50;0.10;;;;;;;17.93;36.36;101428.50;5026334;28;21006;-68
2024/01/19 06:01:09;;;;;;;0.90;0.30;;;;;;;17.95;36.55;101434.44;4991239;28;20730;-69
2024/01/19 06:03:35;;;;;;;1.25;0.60;;;;;;;17.97;36.35;101439.56;5027377;28;20037;-68
2024/01/19 06:06:04;;;;;;;0.90;0.30;;;;;;;17.84;36.39;101421.50;5028649;28;20037;-68
2024/01/19 06:08:30;;;;;;;0.50;0.50;;;;;;;17.95;36.50;101438.88;5028642;28;20362;-68
2024/01/19 06:10:56;;;;;;;1.08;0.50;;;;;;;17.99;36.67;101461.34;5032552;28;20117;-69
2024/01/19 06:13:22;;;;;;;0.45;0.40;;;;;;;17.83;36.54;101440.09;5024233;28;20310;-69
2024/01/19 06:15:48;;;;;;;2.78;0.85;;;;;;;17.85;36.73;101454.78;5029854;28;20409;-69
2024/01/19 06:18:13;;;;;;;0.52;0.40;;;;;;;17.90;36.52;101472.75;5026598;28;20115;-69
2024/01/19 06:20:41;;;;;;;0.95;0.40;;;;;;;17.91;36.63;101482.31;5031069;28;20059;-69
2024/01/19 06:23:11;;;;;;;1.05;0.40;;;;;;;17.87;36.57;101488.88;5028687;28;20555;-69
2024/01/19 06:25:38;;;;;;;0.98;0.32;;;;;;;17.84;36.79;101511.09;5027407;28;20474;-69
2024/01/19 06:28:04;;;;;;;0.57;0.50;;;;;;;17.81;36.91;101527.19;5037678;28;20045;-68
2024/01/19 06:30:29;;;;;;;1.38;0.60;;;;;;;17.72;36.72;101522.81;5033442;28;20390;-69
2024/01/19 06:32:55;;;;;;;1.33;0.30;;;;;;;17.76;36.79;101521.53;5015870;28;20029;-69
2024/01/19 06:35:21;;;;;;;0.35;0.30;;;;;;;17.64;37.04;101518.28;5031830;28;20116;-69
2024/01/19 06:37:47;;;;;;;3.30;0.60;;;;;;;17.64;37.11;101518.28;5029660;28;20029;-69
2024/01/19 06:40:14;;;;;;;0.47;0.40;;;;;;;17.58;36.99;101495.13;5033113;28;20033;-69
2024/01/19 06:42:40;;;;;;;2.63;0.60;;;;;;;17.57;37.12;101496.13;5036328;28;20033;-69
2024/01/19 06:45:06;;;;;;;2.30;0.73;;;;;;;17.61;36.95;101505.41;5010905;28;20049;-69
2024/01/19 06:47:32;;;;;;;0.68;0.40;;;;;;;17.64;37.00;101504.28;5032505;28;20041;-69
2024/01/19 06:49:58;;;;;;;0.77;0.43;;;;;;;17.69;36.97;101502.88;5028827;28;20037;-69
2024/01/19 06:52:23;;;;;;;2.22;0.40;;;;;;;17.86;36.76;101503.03;5022611;28;20072;-69
2024/01/19 06:54:49;;;;;;;0.55;0.40;;;;;;;17.83;36.34;101477.81;5027715;28;20025;-69
2024/01/19 06:57:14;;;;;;;0.32;0.17;;;;;;;18.02;36.48;101514.56;5030500;28;20463;-69
2024/01/19 06:59:40;;;;;;;0.40;0.40;;;;;;;17.94;36.36;101496.03;5031718;28;20037;-69
2024/01/19 07:02:06;;;;;;;0.50;0.30;;;;;;;18.06;36.45;101515.06;5032648;28;20045;-69
2024/01/19 07:04:31;;;;;;;1.20;0.55;;;;;;;17.91;36.47;101504.22;5033601;28;20045;-69
2024/01/19 07:06:57;;;;;;;0.70;0.30;;;;;;;18.01;36.43;101528.72;5014463;28;20045;-69
2024/01/19 07:09:22;;;;;;;1.17;0.57;;;;;;;17.95;36.54;101523.19;5024650;28;20040;-69
2024/01/19 07:11:48;;;;;;;0.68;0.35;;;;;;;17.98;36.35;101536.09;5028704;28;20033;-68
2024/01/19 07:14:14;;;;;;;1.73;0.68;;;;;;;17.95;36.39;101546.91;5030205;28;20071;-67
2024/01/19 07:16:40;;;;;;;2.35;0.47;;;;;;;17.96;36.70;101546.78;5036612;28;20041;-69
2024/01/19 07:19:06;;;;;;;0.40;0.30;;;;;;;17.92;36.76;101547.22;5013990;28;20054;-69
2024/01/19 07:21:39;;;;;;;1.83;0.68;;;;;;;17.99;36.29;101551.75;5024136;28;20410;-68
2024/01/19 07:24:07;;;;;;;2.00;0.40;;;;;;;18.02;36.22;101527.72;5030244;28;20037;-68
2024/01/19 07:26:33;;;;;;;0.85;0.52;;;;;;;18.28;36.14;101550.69;5032829;28;20465;-69
2024/01/19 07:28:59;;;;;;;2.53;0.68;;;;;;;17.98;35.93;101486.84;5035390;28;20041;-68
2024/01/19 07:31:25;;;;;;;0.82;0.32;;;;;;;18.46;36.14;101551.50;5033591;28;20543;-69
2024/01/19 07:33:51;;;;;;;1.85;0.65;;;;;;;18.52;35.91;101550.91;5031352;28;20422;-68
2024/01/19 07:36:16;;;;;;;2.92;0.52;;;;;;;18.65;35.77;101558.41;5030338;28;20037;-69
2024/01/19 07:38:42;;;;;;;1.65;0.70;;;;;;;18.61;35.56;101551.78;5029030;28;20037;-69
2024/01/19 07:41:08;;;;;;;1.50;0.47;;;;;;;18.70;35.48;101566.72;5028560;28;20470;-69
2024/01/19 07:43:33;;;;;;;1.65;0.47;;;;;;;18.66;35.77;101568.81;5024975;28;20088;-69
2024/01/19 07:45:59;;;;;;;0.93;0.60;;;;;;;18.71;35.50;101568.38;5029216;28;20037;-68
2024/01/19 07:48:24;;;;;;;1.13;0.70;;;;;;;18.70;35.75;101575.47;5029928;28;20038;-69
2024/01/19 07:50:50;;;;;;;0.88;0.50;;;;;;;18.67;35.65;101573.13;5033770;28;20041;-66
2024/01/19 07:53:15;;;;;;;0.93;0.40;;;;;;;18.65;35.68;101588.25;5024602;28;20128;-67
2024/01/19 07:55:41;;;;;;;1.05;0.70;;;;;;;18.66;35.66;101589.91;5025606;28;20034;-67
2024/01/19 07:58:07;;;;;;;1.35;0.57;;;;;;;18.63;35.81;101586.75;4983486;28;20293;-62
2024/01/19 08:00:32;;;;;;;3.58;0.80;;;;;;;18.59;35.75;101591.50;5008129;28;20049;-62
2024/01/19 08:03:05;;;;;;;1.70;0.70;;;;;;;18.26;35.93;101556.09;5019037;28;20057;-62
2024/01/19 08:05:32;;;;;;;1.38;0.60;;;;;;;18.47;36.54;101589.25;4986786;28;20121;-69
2024/01/19 08:07:58;;;;;;;1.75;0.68;;;;;;;18.39;36.59;101595.28;5025345;28;20072;-70
2024/01/19 08:10:24;;;;;;;1.55;0.63;;;;;;;18.37;36.72;101590.16;5023418;28;20045;-70
2024/01/19 08:12:49;;;;;;;2.33;0.80;;;;;;;18.48;36.20;101593.53;5025462;28;20045;-69
2024/01/19 08:15:15;;;;;;;2.97;1.10;;;;;;;18.45;36.47;101604.38;5024358;28;20474;-69
2024/01/19 08:17:41;;;;;;;1.35;0.75;;;;;;;18.34;36.66;101598.38;5025662;28;20072;-69
2024/01/19 08:20:10;;;;;;;1.23;0.65;;;;;;;18.38;36.62;101597.09;4970171;28;20133;-63
2024/01/19 08:22:37;;;;;;;0.70;0.63;;;;;;;18.47;36.25;101600.63;5001799;28;20124;-62
2024/01/19 08:25:04;;;;;;;2.35;0.60;;;;;;;18.45;36.17;101583.28;4978784;28;20517;-69
2024/01/19 08:27:30;;;;;;;2.08;1.30;;;;;;;18.63;36.04;101607.88;5028350;28;20049;-69
2024/01/19 08:29:56;;;;;;;1.75;0.60;;;;;;;18.66;35.88;101608.38;5005294;28;20053;-63
2024/01/19 08:32:23;;;;;;;1.63;0.73;;;;;;;18.71;35.93;101619.34;5023479;28;20652;-63
2024/01/19 08:34:48;;;;;;;2.22;1.10;;;;;;;18.75;35.88;101622.50;4972252;28;20120;-66
2024/01/19 08:37:14;;;;;;;0.85;0.38;;;;;;;18.69;36.08;101616.03;5025331;28;20056;-66
2024/01/19 08:39:39;;;;;;;1.45;0.63;;;;;;;18.68;35.60;101601.19;4972215;28;20033;-69
2024/01/19 08:42:06;;;;;;;3.15;0.93;;;;;;;18.65;36.54;101612.00;5026854;28;20063;-72
2024/01/19 08:44:32;;;;;;;1.58;0.70;;;;;;;18.83;36.64;101627.81;4969929;28;20045;-70
2024/01/19 08:46:58;;;;;;;1.90;0.77;;;;;;;19.13;36.20;101629.19;4995477;28;20037;-70
2024/01/19 08:49:24;;;;;;;0.90;0.75;;;;;;;19.51;35.84;101627.06;5007067;28;20064;-72
2024/01/19 08:51:51;;;;;;;1.17;0.50;;;;;;;19.59;35.80;101613.94;4965937;28;20121;-73
2024/01/19 08:54:18;;;;;;;2.60;0.60;;;;;;;19.85;35.46;101630.53;5019266;28;20029;-71
2024/01/19 08:56:43;;;;;;;1.25;0.88;;;;;;;19.85;35.60;101635.84;4976904;28;20040;-67
2024/01/19 08:59:09;;;;;;;1.75;0.55;;;;;;;19.75;35.76;101643.09;5026303;28;20041;-68
2024/01/19 09:01:35;;;;;;;1.58;0.43;;;;;;;19.69;35.72;101638.41;4974203;28;20051;-66
2024/01/19 09:04:00;;;;;;;3.78;0.85;;;;;;;19.71;35.72;101638.25;5024989;28;20038;-66
2024/01/19 09:06:26;;;;;;;1.02;0.65;;;;;;;19.80;35.40;101637.31;4937103;28;20045;-73
2024/01/19 09:08:51;;;;;;;2.17;0.65;;;;;;;19.74;35.52;101651.13;5011806;28;20139;-72
2024/01/19 09:11:17;;;;;;;4.00;0.80;;;;;;;19.65;35.82;101657.38;5008580;28;20049;-70
2024/01/19 09:13:42;;;;;;;0.73;0.38;;;;;;;19.54;35.80;101650.56;5022837;28;20037;-69
2024/01/19 09:16:09;;;;;;;2.03;0.70;;;;;;;19.58;35.69;101665.97;4970815;28;20768;-73
2024/01/19 09:18:36;;;;;;;4.10;0.95;;;;;;;19.44;36.16;101660.41;5022115;28;20045;-72
2024/01/19 09:21:04;;;;;;;3.25;0.55;;;;;;;19.42;35.93;101659.72;4982341;28;20477;-69
2024/01/19 09:23:31;;;;;;;1.10;0.67;;;;;;;19.45;35.76;101659.41;5008243;28;20384;-68
2024/01/19 09:25:56;;;;;;;1.58;0.82;;;;;;;19.46;35.86;101664.53;4969195;28;21591;-69
2024/01/19 09:28:22;;;;;;;0.73;0.40;;;;;;;19.50;35.62;101665.88;5027985;28;20041;-70
2024/01/19 09:30:52;;;;;;;1.80;0.75;;;;;;;19.46;35.61;101664.53;5008970;28;20334;-70
2024/01/19 09:33:21;;;;;;;3.85;0.93;;;;;;;19.46;35.74;101675.09;4987137;28;20053;-69
2024/01/19 09:35:47;;;;;;;2.60;0.52;;;;;;;19.36;35.49;101655.88;4972773;28;20095;-66
2024/01/19 09:38:12;;;;;;;1.63;0.90;;;;;;;19.44;35.65;101677.06;5020792;28;20029;-66
2024/01/19 09:40:40;;;;;;;3.22;0.82;;;;;;;19.42;35.53;101672.94;4950974;28;20041;-72
2024/01/19 09:43:07;;;;;;;0.85;0.65;;;;;;;19.41;35.47;101672.09;5024727;28;20045;-73
2024/01/19 09:45:41;;;;;;;2.33;0.90;;;;;;;19.51;35.38;101695.75;4970314;28;20033;-70
2024/01/19 09:48:43;;;;;;;3.15;0.85;;;;;;;19.50;35.29;101691.47;5020773;28;20110;-69
2024/01/19 09:51:10;;;;;;;1.77;0.80;;;;;;;19.37;35.62;101701.59;4952898;28;20057;-65
2024/01/19 09:53:45;;;;;;;1.50;0.80;;;;;;;19.30;35.57;101689.03;5008029;28;20136;-69
2024/01/19 09:56:12;;;;;;;2.40;0.88;;;;;;;19.42;35.52;101709.91;5021513;28;20098;-68
2024/01/19 09:58:38;;;;;;;1.85;0.88;;;;;;;18.97;35.34;101610.59;4966134;28;20041;-66
2024/01/19 10:01:03;;;;;;;1.02;0.70;;;;;;;19.57;35.40;101711.03;5025496;28;20061;-66
2024/01/19 10:03:30;;;;;;;2.67;0.90;;;;;;;19.54;35.36;101698.94;4969607;28;20361;-72
2024/01/19 10:05:56;;;;;;;1.08;0.60;;;;;;;19.41;35.41;101680.03;5023475;28;20061;-72
2024/01/19 10:08:22;;;;;;;0.52;0.40;;;;;;;19.59;35.52;101715.16;4971537;28;20932;-66
2024/01/19 10:10:49;;;;;;;1.45;0.75;;;;;;;19.58;35.50;101728.53;5028698;28;20421;-65
2024/01/19 10:13:16;;;;;;;2.67;0.95;;;;;;;19.59;35.47;101724.91;4971841;28;20554;-72
2024/01/19 10:15:43;;;;;;;2.10;0.70;;;;;;;19.51;35.61;101730.94;5019666;28;20449;-72
2024/01/19 10:18:10;;;;;;;1.27;0.57;;;;;;;19.48;35.42;101718.03;5004265;28;20061;-72
2024/01/19 10:20:38;;;;;;;2.40;1.27;;;;;;;19.55;35.48;101734.13;5026917;28;20061;-72
2024/01/19 10:23:18;;;;;;;3.50;0.90;;;;;;;19.55;35.53;101736.75;4981322;28;20045;-74
2024/01/19 10:25:43;;;;;;;1.88;0.88;;;;;;;19.59;35.42;101751.34;5020095;28;20030;-74
2024/01/19 10:28:11;;;;;;;2.58;0.63;;;;;;;19.52;35.32;101732.59;4972542;28;21274;-67
2024/01/19 10:30:37;;;;;;;2.70;0.77;;;;;;;19.64;35.20;101743.75;5020948;28;20874;-67
2024/01/19 10:33:08;;;;;;;1.00;0.70;;;;;;;19.67;35.11;101747.91;4979742;28;20051;-71
2024/01/19 10:35:34;;;;;;;1.63;0.90;;;;;;;19.51;35.13;101733.56;5023586;28;20022;-69
2024/01/19 10:38:07;;;;;;;1.40;0.57;;;;;;;19.49;35.28;101730.25;4975112;28;20040;-71
2024/01/19 10:40:34;;;;;;;1.33;0.68;;;;;;;19.61;35.17;101754.66;5009501;28;20037;-69
2024/01/19 10:43:00;;;;;;;0.82;0.60;;;;;;;19.63;35.12;101760.59;5009687;28;20046;-67
2024/01/19 10:45:34;;;;;;;1.40;0.90;;;;;;;19.62;35.20;101761.59;5021809;28;20415;-67
2024/01/19 10:48:03;;;;;;;1.55;0.95;;;;;;;19.65;34.97;101756.00;4969027;28;20038;-68
2024/01/19 10:50:29;;;;;;;1.23;0.80;;;;;;;19.21;35.25;101689.97;5018830;28;20140;-68
2024/01/19 10:53:10;;;;;;;1.40;0.60;;;;;;;19.48;35.44;101740.97;4996554;28;20066;-68
2024/01/19 10:55:36;;;;;;;1.15;0.50;;;;;;;19.50;35.33;101758.31;5024596;28;20061;-72
2024/01/19 10:58:04;;;;;;;1.35;0.65;;;;;;;19.56;35.28;101763.00;4969763;28;21491;-73
2024/01/19 11:00:30;;;;;;;1.92;1.00;;;;;;;19.46;35.38;101758.81;5021207;28;20310;-73
2024/01/19 11:03:00;;;;;;;2.08;1.20;;;;;;;19.60;35.12;101759.09;5008160;28;20030;-66
2024/01/19 11:05:26;;;;;;;1.35;0.77;;;;;;;19.63;35.12;101759.78;5020390;28;20113;-66
2024/01/19 11:07:59;;;;;;;2.30;1.15;;;;;;;19.66;35.05;101765.56;4974096;28;21450;-69
2024/01/19 11:10:27;;;;;;;2.38;0.90;;;;;;;19.64;35.08;101761.44;5017221;28;20049;-69
2024/01/19 11:13:00;;;;;;;2.70;1.15;;;;;;;19.59;35.07;101773.28;4975012;28;20044;-69
2024/01/19 11:15:45;;;;;;;2.40;0.85;;;;;;;19.40;35.37;101751.50;5024129;28;20049;-68
2024/01/19 11:18:11;;;;;;;3.85;1.40;;;;;;;19.59;35.07;101767.19;4967572;28;20045;-72
2024/01/19 11:20:37;;;;;;;1.33;0.52;;;;;;;19.54;34.96;101751.78;5024866;28;20221;-73